sensor_id;sensor_type;location;lat;lon;timestamp;temperature;humidity
57833;DHT22;43667;53.036;6.740;2023-05-10T00:00:14;13.80;99.90
57833;DHT22;43667;53.036;6.740;2023-05-10T00:02:40;13.70;99.90
57833;DHT22;43667;53.036;6.740;2023-05-10T00:05:06;13.40;99.90
57833;DHT22;43667;53.036;6.740;2023-05-10T00:07:32;13.60;99.90
57833;DHT22;43667;53.036;6.740;2023-05-10T00:09:57;13.50;99.90
57833;DHT22;43667;53.036;6.740;2023-05-10T00:12:23;13.50;99.90
57833;DHT22;43667;53.036;6.740;2023-05-10T00:14:49;13.40;99.90
57833;DHT22;43667;53.036;6.740;2023-05-10T00:17:14;13.30;99.90
57833;DHT22;43667;53.036;6.740;2023-05-10T00:19:40;13.50;99.90
57833;DHT22;43667;53.036;6.740;2023-05-10T00:22:06;13.50;99.90
57833;DHT22;43667;53.036;6.740;2023-05-10T00:24:31;13.20;99.90
57833;DHT22;43667;53.036;6.740;2023-05-10T00:26:57;13.40;99.90
57833;DHT22;43667;53.036;6.740;2023-05-10T00:29:22;13.50;99.90
57833;DHT22;43667;53.036;6.740;2023-05-10T00:31:48;13.10;99.90
57833;DHT22;43667;53.036;6.740;2023-05-10T00:34:13;13.50;99.90
57833;DHT22;43667;53.036;6.740;2023-05-10T00:36:39;13.30;99.90
57833;DHT22;43667;53.036;6.740;2023-05-10T00:39:05;13.30;99.90
57833;DHT22;43667;53.036;6.740;2023-05-10T00:41:30;12.90;99.90
57833;DHT22;43667;53.036;6.740;2023-05-10T00:43:58;12.90;99.90
57833;DHT22;43667;53.036;6.740;2023-05-10T00:46:25;13.10;99.90
57833;DHT22;43667;53.036;6.740;2023-05-10T00:48:51;13.10;99.90
57833;DHT22;43667;53.036;6.740;2023-05-10T00:51:17;13.10;99.90
57833;DHT22;43667;53.036;6.740;2023-05-10T00:53:45;13.10;99.90
57833;DHT22;43667;53.036;6.740;2023-05-10T00:56:11;13.00;99.90
57833;DHT22;43667;53.036;6.740;2023-05-10T00:58:38;13.10;99.90
57833;DHT22;43667;53.036;6.740;2023-05-10T01:01:04;13.20;99.90
57833;DHT22;43667;53.036;6.740;2023-05-10T01:03:31;13.00;99.90
57833;DHT22;43667;53.036;6.740;2023-05-10T01:05:57;13.10;99.90
57833;DHT22;43667;53.036;6.740;2023-05-10T01:08:23;12.90;99.90
57833;DHT22;43667;53.036;6.740;2023-05-10T01:10:49;13.10;99.90
57833;DHT22;43667;53.036;6.740;2023-05-10T01:13:33;13.10;99.90
57833;DHT22;43667;53.036;6.740;2023-05-10T01:16:00;13.30;99.90
57833;DHT22;43667;53.036;6.740;2023-05-10T01:18:35;13.10;99.90
57833;DHT22;43667;53.036;6.740;2023-05-10T01:21:15;13.00;99.90
57833;DHT22;43667;53.036;6.740;2023-05-10T01:32:32;13.30;99.90
57833;DHT22;43667;53.036;6.740;2023-05-10T01:35:07;12.90;99.90
57833;DHT22;43667;53.036;6.740;2023-05-10T01:37:42;13.40;99.90
57833;DHT22;43667;53.036;6.740;2023-05-10T01:40:19;13.00;99.90
57833;DHT22;43667;53.036;6.740;2023-05-10T01:42:50;13.10;99.90
57833;DHT22;43667;53.036;6.740;2023-05-10T01:48:09;13.20;99.90
57833;DHT22;43667;53.036;6.740;2023-05-10T01:50:37;13.10;99.90
57833;DHT22;43667;53.036;6.740;2023-05-10T01:53:06;13.10;99.90
57833;DHT22;43667;53.036;6.740;2023-05-10T01:55:36;13.10;99.90
57833;DHT22;43667;53.036;6.740;2023-05-10T01:58:09;13.40;99.90
57833;DHT22;43667;53.036;6.740;2023-05-10T02:00:36;13.10;99.90
57833;DHT22;43667;53.036;6.740;2023-05-10T02:03:06;13.10;99.90
57833;DHT22;43667;53.036;6.740;2023-05-10T02:05:34;13.00;99.90
57833;DHT22;43667;53.036;6.740;2023-05-10T02:08:03;13.00;99.90
57833;DHT22;43667;53.036;6.740;2023-05-10T02:10:32;13.30;99.90
57833;DHT22;43667;53.036;6.740;2023-05-10T02:12:59;13.00;99.90
57833;DHT22;43667;53.036;6.740;2023-05-10T02:15:26;12.90;99.90
57833;DHT22;43667;53.036;6.740;2023-05-10T02:17:54;13.00;99.90
57833;DHT22;43667;53.036;6.740;2023-05-10T02:20:22;13.00;99.90
57833;DHT22;43667;53.036;6.740;2023-05-10T02:22:52;12.80;99.90
57833;DHT22;43667;53.036;6.740;2023-05-10T02:25:19;12.80;99.90
57833;DHT22;43667;53.036;6.740;2023-05-10T02:27:47;12.90;99.90
57833;DHT22;43667;53.036;6.740;2023-05-10T02:30:14;12.80;99.90
57833;DHT22;43667;53.036;6.740;2023-05-10T02:32:41;12.60;99.90
57833;DHT22;43667;53.036;6.740;2023-05-10T02:35:07;12.80;99.90
57833;DHT22;43667;53.036;6.740;2023-05-10T02:37:34;13.10;99.90
57833;DHT22;43667;53.036;6.740;2023-05-10T02:40:01;12.70;99.90
57833;DHT22;43667;53.036;6.740;2023-05-10T02:42:29;12.80;99.90
57833;DHT22;43667;53.036;6.740;2023-05-10T02:45:01;12.80;99.90
57833;DHT22;43667;53.036;6.740;2023-05-10T02:47:28;13.00;99.90
57833;DHT22;43667;53.036;6.740;2023-05-10T02:49:54;13.20;99.90
57833;DHT22;43667;53.036;6.740;2023-05-10T02:52:24;12.80;99.90
57833;DHT22;43667;53.036;6.740;2023-05-10T02:54:55;13.00;99.90
57833;DHT22;43667;53.036;6.740;2023-05-10T02:57:26;12.90;99.90
57833;DHT22;43667;53.036;6.740;2023-05-10T02:59:53;12.70;99.90
57833;DHT22;43667;53.036;6.740;2023-05-10T03:02:19;12.90;99.90
57833;DHT22;43667;53.036;6.740;2023-05-10T03:04:45;13.10;99.90
57833;DHT22;43667;53.036;6.740;2023-05-10T03:07:11;12.70;99.90
57833;DHT22;43667;53.036;6.740;2023-05-10T03:09:39;12.90;99.90
57833;DHT22;43667;53.036;6.740;2023-05-10T03:12:12;12.50;99.90
57833;DHT22;43667;53.036;6.740;2023-05-10T03:14:52;12.90;99.90
57833;DHT22;43667;53.036;6.740;2023-05-10T03:17:25;12.90;99.90
57833;DHT22;43667;53.036;6.740;2023-05-10T03:19:56;12.70;99.90
57833;DHT22;43667;53.036;6.740;2023-05-10T03:22:47;12.70;99.90
57833;DHT22;43667;53.036;6.740;2023-05-10T03:25:15;13.00;99.90
57833;DHT22;43667;53.036;6.740;2023-05-10T03:27:43;13.00;99.90
57833;DHT22;43667;53.036;6.740;2023-05-10T03:30:11;13.10;99.90
57833;DHT22;43667;53.036;6.740;2023-05-10T03:32:37;12.80;99.90
57833;DHT22;43667;53.036;6.740;2023-05-10T03:35:09;12.80;99.90
57833;DHT22;43667;53.036;6.740;2023-05-10T03:37:35;12.90;99.90
57833;DHT22;43667;53.036;6.740;2023-05-10T03:40:02;12.70;99.90
57833;DHT22;43667;53.036;6.740;2023-05-10T03:42:28;12.80;99.90
57833;DHT22;43667;53.036;6.740;2023-05-10T03:44:53;12.70;99.90
57833;DHT22;43667;53.036;6.740;2023-05-10T03:47:19;12.60;99.90
57833;DHT22;43667;53.036;6.740;2023-05-10T03:49:45;12.70;99.90
57833;DHT22;43667;53.036;6.740;2023-05-10T03:52:11;12.70;99.90
57833;DHT22;43667;53.036;6.740;2023-05-10T03:54:37;12.80;99.90
57833;DHT22;43667;53.036;6.740;2023-05-10T03:57:03;13.30;99.90
57833;DHT22;43667;53.036;6.740;2023-05-10T03:59:29;12.80;99.90
57833;DHT22;43667;53.036;6.740;2023-05-10T04:01:55;12.60;99.90
57833;DHT22;43667;53.036;6.740;2023-05-10T04:04:21;12.60;99.90
57833;DHT22;43667;53.036;6.740;2023-05-10T04:06:47;13.00;99.90
57833;DHT22;43667;53.036;6.740;2023-05-10T04:09:12;12.80;99.90
57833;DHT22;43667;53.036;6.740;2023-05-10T04:11:39;12.50;99.90
57833;DHT22;43667;53.036;6.740;2023-05-10T04:14:04;12.60;99.90
57833;DHT22;43667;53.036;6.740;2023-05-10T04:16:30;12.50;99.90
57833;DHT22;43667;53.036;6.740;2023-05-10T04:18:55;12.60;99.90
57833;DHT22;43667;53.036;6.740;2023-05-10T04:21:21;12.60;99.90
57833;DHT22;43667;53.036;6.740;2023-05-10T04:23:47;12.50;99.90
57833;DHT22;43667;53.036;6.740;2023-05-10T04:26:13;12.70;99.90
57833;DHT22;43667;53.036;6.740;2023-05-10T04:28:38;12.50;99.90
57833;DHT22;43667;53.036;6.740;2023-05-10T04:31:05;12.70;99.90
57833;DHT22;43667;53.036;6.740;2023-05-10T04:33:31;12.70;99.90
57833;DHT22;43667;53.036;6.740;2023-05-10T04:35:57;13.00;99.90
57833;DHT22;43667;53.036;6.740;2023-05-10T04:38:23;12.90;99.90
57833;DHT22;43667;53.036;6.740;2023-05-10T04:40:48;12.60;99.90
57833;DHT22;43667;53.036;6.740;2023-05-10T04:43:14;12.70;99.90
57833;DHT22;43667;53.036;6.740;2023-05-10T04:45:40;13.00;99.90
57833;DHT22;43667;53.036;6.740;2023-05-10T04:48:05;12.70;99.90
57833;DHT22;43667;53.036;6.740;2023-05-10T04:50:31;12.90;99.90
57833;DHT22;43667;53.036;6.740;2023-05-10T04:52:57;12.70;99.90
57833;DHT22;43667;53.036;6.740;2023-05-10T04:55:22;12.50;99.90
57833;DHT22;43667;53.036;6.740;2023-05-10T04:57:48;12.50;99.90
57833;DHT22;43667;53.036;6.740;2023-05-10T05:00:14;12.70;99.90
57833;DHT22;43667;53.036;6.740;2023-05-10T05:02:44;12.60;99.90
57833;DHT22;43667;53.036;6.740;2023-05-10T05:05:12;12.70;99.90
57833;DHT22;43667;53.036;6.740;2023-05-10T05:07:38;12.60;99.90
57833;DHT22;43667;53.036;6.740;2023-05-10T05:10:05;12.40;99.90
57833;DHT22;43667;53.036;6.740;2023-05-10T05:12:31;12.60;99.90
57833;DHT22;43667;53.036;6.740;2023-05-10T05:14:57;12.50;99.90
57833;DHT22;43667;53.036;6.740;2023-05-10T05:17:22;12.60;99.90
57833;DHT22;43667;53.036;6.740;2023-05-10T05:19:48;12.60;99.90
57833;DHT22;43667;53.036;6.740;2023-05-10T05:22:15;12.40;99.90
57833;DHT22;43667;53.036;6.740;2023-05-10T05:24:40;12.70;99.90
57833;DHT22;43667;53.036;6.740;2023-05-10T05:27:06;12.70;99.90
57833;DHT22;43667;53.036;6.740;2023-05-10T05:29:32;12.60;99.90
57833;DHT22;43667;53.036;6.740;2023-05-10T05:31:58;12.60;99.90
57833;DHT22;43667;53.036;6.740;2023-05-10T05:34:23;12.60;99.90
57833;DHT22;43667;53.036;6.740;2023-05-10T05:36:50;12.60;99.90
57833;DHT22;43667;53.036;6.740;2023-05-10T05:39:16;12.70;99.90
57833;DHT22;43667;53.036;6.740;2023-05-10T05:41:41;12.40;99.90
57833;DHT22;43667;53.036;6.740;2023-05-10T05:44:07;12.50;99.90
57833;DHT22;43667;53.036;6.740;2023-05-10T05:46:33;12.60;99.90
57833;DHT22;43667;53.036;6.740;2023-05-10T05:48:58;12.70;99.90
57833;DHT22;43667;53.036;6.740;2023-05-10T05:51:24;12.60;99.90
57833;DHT22;43667;53.036;6.740;2023-05-10T05:53:50;12.90;99.90
57833;DHT22;43667;53.036;6.740;2023-05-10T05:56:16;12.60;99.90
57833;DHT22;43667;53.036;6.740;2023-05-10T05:58:43;12.70;99.90
57833;DHT22;43667;53.036;6.740;2023-05-10T06:01:09;12.60;99.90
57833;DHT22;43667;53.036;6.740;2023-05-10T06:03:34;12.60;99.90
57833;DHT22;43667;53.036;6.740;2023-05-10T06:06:00;12.60;99.90
57833;DHT22;43667;53.036;6.740;2023-05-10T06:08:25;12.50;99.90
57833;DHT22;43667;53.036;6.740;2023-05-10T06:10:51;12.60;99.90
57833;DHT22;43667;53.036;6.740;2023-05-10T06:13:17;12.80;99.90
57833;DHT22;43667;53.036;6.740;2023-05-10T06:15:42;12.50;99.90
57833;DHT22;43667;53.036;6.740;2023-05-10T06:18:08;12.70;99.90
57833;DHT22;43667;53.036;6.740;2023-05-10T06:20:33;12.80;99.90
57833;DHT22;43667;53.036;6.740;2023-05-10T06:22:59;12.70;99.90
57833;DHT22;43667;53.036;6.740;2023-05-10T06:25:25;12.80;99.90
57833;DHT22;43667;53.036;6.740;2023-05-10T06:27:50;12.70;99.90
57833;DHT22;43667;53.036;6.740;2023-05-10T06:30:20;12.70;99.90
57833;DHT22;43667;53.036;6.740;2023-05-10T06:32:48;13.00;99.90
57833;DHT22;43667;53.036;6.740;2023-05-10T06:35:13;12.80;99.90
57833;DHT22;43667;53.036;6.740;2023-05-10T06:37:39;12.80;99.90
57833;DHT22;43667;53.036;6.740;2023-05-10T06:40:06;12.90;99.90
57833;DHT22;43667;53.036;6.740;2023-05-10T06:42:31;12.70;99.90
57833;DHT22;43667;53.036;6.740;2023-05-10T06:44:57;12.70;99.90
57833;DHT22;43667;53.036;6.740;2023-05-10T06:47:23;12.70;99.90
57833;DHT22;43667;53.036;6.740;2023-05-10T06:49:48;12.40;99.90
57833;DHT22;43667;53.036;6.740;2023-05-10T06:52:14;12.60;99.90
57833;DHT22;43667;53.036;6.740;2023-05-10T06:54:39;12.60;99.90
57833;DHT22;43667;53.036;6.740;2023-05-10T06:57:05;12.60;99.90
57833;DHT22;43667;53.036;6.740;2023-05-10T06:59:31;12.60;99.90
57833;DHT22;43667;53.036;6.740;2023-05-10T07:01:56;12.60;99.90
57833;DHT22;43667;53.036;6.740;2023-05-10T07:04:22;12.70;99.90
57833;DHT22;43667;53.036;6.740;2023-05-10T07:06:48;12.70;99.90
57833;DHT22;43667;53.036;6.740;2023-05-10T07:09:15;12.70;99.90
57833;DHT22;43667;53.036;6.740;2023-05-10T07:11:41;12.70;99.90
57833;DHT22;43667;53.036;6.740;2023-05-10T07:14:06;12.70;99.90
57833;DHT22;43667;53.036;6.740;2023-05-10T07:16:32;12.70;99.90
57833;DHT22;43667;53.036;6.740;2023-05-10T07:18:58;12.70;99.90
57833;DHT22;43667;53.036;6.740;2023-05-10T07:21:23;12.70;99.90
57833;DHT22;43667;53.036;6.740;2023-05-10T07:23:50;12.70;99.90
57833;DHT22;43667;53.036;6.740;2023-05-10T07:26:15;12.70;99.90
57833;DHT22;43667;53.036;6.740;2023-05-10T07:28:41;12.70;99.90
57833;DHT22;43667;53.036;6.740;2023-05-10T07:31:07;12.90;99.90
57833;DHT22;43667;53.036;6.740;2023-05-10T07:33:33;12.80;99.90
57833;DHT22;43667;53.036;6.740;2023-05-10T07:35:58;12.90;99.90
57833;DHT22;43667;53.036;6.740;2023-05-10T07:38:24;13.00;99.90
57833;DHT22;43667;53.036;6.740;2023-05-10T07:40:49;13.00;99.90
57833;DHT22;43667;53.036;6.740;2023-05-10T07:43:15;12.80;99.90
57833;DHT22;43667;53.036;6.740;2023-05-10T07:45:40;12.10;99.90
57833;DHT22;43667;53.036;6.740;2023-05-10T07:48:06;12.80;99.90
57833;DHT22;43667;53.036;6.740;2023-05-10T07:50:32;12.70;99.90
57833;DHT22;43667;53.036;6.740;2023-05-10T07:52:58;13.40;99.90
57833;DHT22;43667;53.036;6.740;2023-05-10T07:55:23;13.90;99.90
57833;DHT22;43667;53.036;6.740;2023-05-10T07:57:49;13.70;99.90
57833;DHT22;43667;53.036;6.740;2023-05-10T08:00:18;13.80;99.90
57833;DHT22;43667;53.036;6.740;2023-05-10T08:02:43;13.50;99.90
57833;DHT22;43667;53.036;6.740;2023-05-10T08:05:09;13.70;99.90
57833;DHT22;43667;53.036;6.740;2023-05-10T08:07:35;13.60;99.90
57833;DHT22;43667;53.036;6.740;2023-05-10T08:10:01;13.60;99.90
57833;DHT22;43667;53.036;6.740;2023-05-10T08:12:27;13.90;99.90
57833;DHT22;43667;53.036;6.740;2023-05-10T08:14:53;13.80;99.90
57833;DHT22;43667;53.036;6.740;2023-05-10T08:17:18;13.70;99.90
57833;DHT22;43667;53.036;6.740;2023-05-10T08:19:44;13.70;99.90
57833;DHT22;43667;53.036;6.740;2023-05-10T08:22:10;13.60;99.90
57833;DHT22;43667;53.036;6.740;2023-05-10T08:24:35;13.70;99.90
57833;DHT22;43667;53.036;6.740;2023-05-10T08:27:07;13.90;99.90
57833;DHT22;43667;53.036;6.740;2023-05-10T08:29:33;13.70;99.90
57833;DHT22;43667;53.036;6.740;2023-05-10T08:31:59;14.20;99.90
57833;DHT22;43667;53.036;6.740;2023-05-10T08:34:26;14.00;99.90
57833;DHT22;43667;53.036;6.740;2023-05-10T08:36:52;13.70;99.90
57833;DHT22;43667;53.036;6.740;2023-05-10T08:39:18;13.80;99.90
57833;DHT22;43667;53.036;6.740;2023-05-10T08:41:45;13.50;99.90
57833;DHT22;43667;53.036;6.740;2023-05-10T08:44:12;13.60;99.90
57833;DHT22;43667;53.036;6.740;2023-05-10T08:46:41;13.60;99.90
57833;DHT22;43667;53.036;6.740;2023-05-10T08:49:13;13.60;99.90
57833;DHT22;43667;53.036;6.740;2023-05-10T08:51:47;13.50;99.90
57833;DHT22;43667;53.036;6.740;2023-05-10T08:54:14;13.50;99.90
57833;DHT22;43667;53.036;6.740;2023-05-10T08:56:41;13.50;99.90
57833;DHT22;43667;53.036;6.740;2023-05-10T08:59:06;13.50;99.90
57833;DHT22;43667;53.036;6.740;2023-05-10T09:01:32;13.50;99.90
57833;DHT22;43667;53.036;6.740;2023-05-10T09:03:59;13.50;99.90
57833;DHT22;43667;53.036;6.740;2023-05-10T09:06:24;13.70;99.90
57833;DHT22;43667;53.036;6.740;2023-05-10T09:08:52;13.70;99.90
57833;DHT22;43667;53.036;6.740;2023-05-10T09:11:18;13.60;99.90
57833;DHT22;43667;53.036;6.740;2023-05-10T09:13:47;13.30;99.90
57833;DHT22;43667;53.036;6.740;2023-05-10T09:16:14;13.80;99.90
57833;DHT22;43667;53.036;6.740;2023-05-10T09:18:39;14.20;99.90
57833;DHT22;43667;53.036;6.740;2023-05-10T09:21:05;14.10;99.90
57833;DHT22;43667;53.036;6.740;2023-05-10T09:23:30;13.90;99.90
57833;DHT22;43667;53.036;6.740;2023-05-10T09:26:06;14.40;99.90
57833;DHT22;43667;53.036;6.740;2023-05-10T09:28:51;14.60;99.90
57833;DHT22;43667;53.036;6.740;2023-05-10T09:31:16;14.30;99.90
57833;DHT22;43667;53.036;6.740;2023-05-10T09:33:46;14.10;99.90
57833;DHT22;43667;53.036;6.740;2023-05-10T09:36:13;14.40;99.90
57833;DHT22;43667;53.036;6.740;2023-05-10T09:38:49;14.00;99.90
57833;DHT22;43667;53.036;6.740;2023-05-10T09:41:23;14.30;99.90
57833;DHT22;43667;53.036;6.740;2023-05-10T09:43:49;14.20;99.90
57833;DHT22;43667;53.036;6.740;2023-05-10T09:46:15;14.60;99.90
57833;DHT22;43667;53.036;6.740;2023-05-10T09:48:43;14.60;99.90
57833;DHT22;43667;53.036;6.740;2023-05-10T09:51:09;14.80;99.90
57833;DHT22;43667;53.036;6.740;2023-05-10T09:53:35;14.90;99.90
57833;DHT22;43667;53.036;6.740;2023-05-10T09:56:00;15.00;99.90
57833;DHT22;43667;53.036;6.740;2023-05-10T09:58:26;15.10;99.90
57833;DHT22;43667;53.036;6.740;2023-05-10T10:00:52;15.10;99.90
57833;DHT22;43667;53.036;6.740;2023-05-10T10:03:20;15.20;99.90
57833;DHT22;43667;53.036;6.740;2023-05-10T10:05:47;15.20;99.90
57833;DHT22;43667;53.036;6.740;2023-05-10T10:08:14;15.20;99.90
57833;DHT22;43667;53.036;6.740;2023-05-10T10:10:40;15.20;99.90
57833;DHT22;43667;53.036;6.740;2023-05-10T10:13:06;15.30;99.90
57833;DHT22;43667;53.036;6.740;2023-05-10T10:15:34;15.40;99.90
57833;DHT22;43667;53.036;6.740;2023-05-10T10:18:00;15.40;99.90
57833;DHT22;43667;53.036;6.740;2023-05-10T10:20:26;15.50;99.90
57833;DHT22;43667;53.036;6.740;2023-05-10T10:22:52;15.60;99.90
57833;DHT22;43667;53.036;6.740;2023-05-10T10:25:19;15.60;99.90
57833;DHT22;43667;53.036;6.740;2023-05-10T10:30:23;15.80;99.90
57833;DHT22;43667;53.036;6.740;2023-05-10T10:35:20;15.70;99.90
57833;DHT22;43667;53.036;6.740;2023-05-10T10:37:47;15.70;99.90
57833;DHT22;43667;53.036;6.740;2023-05-10T10:40:26;15.80;99.90
57833;DHT22;43667;53.036;6.740;2023-05-10T10:42:52;15.90;99.90
57833;DHT22;43667;53.036;6.740;2023-05-10T10:45:19;16.00;99.90
57833;DHT22;43667;53.036;6.740;2023-05-10T10:47:45;16.00;99.90
57833;DHT22;43667;53.036;6.740;2023-05-10T10:50:11;16.10;99.90
57833;DHT22;43667;53.036;6.740;2023-05-10T10:52:45;16.00;99.90
57833;DHT22;43667;53.036;6.740;2023-05-10T10:55:18;15.90;99.90
57833;DHT22;43667;53.036;6.740;2023-05-10T10:57:47;15.80;99.90
57833;DHT22;43667;53.036;6.740;2023-05-10T11:00:34;15.70;99.90
57833;DHT22;43667;53.036;6.740;2023-05-10T11:03:04;15.70;99.90
57833;DHT22;43667;53.036;6.740;2023-05-10T11:11:13;15.90;99.90
57833;DHT22;43667;53.036;6.740;2023-05-10T11:13:45;16.00;99.90
57833;DHT22;43667;53.036;6.740;2023-05-10T11:16:21;15.90;99.90
57833;DHT22;43667;53.036;6.740;2023-05-10T11:21:22;15.90;99.90
57833;DHT22;43667;53.036;6.740;2023-05-10T11:23:50;15.80;99.90
57833;DHT22;43667;53.036;6.740;2023-05-10T11:26:17;15.80;99.90
57833;DHT22;43667;53.036;6.740;2023-05-10T11:28:46;15.60;99.90
57833;DHT22;43667;53.036;6.740;2023-05-10T11:31:19;15.60;99.90
57833;DHT22;43667;53.036;6.740;2023-05-10T11:33:51;15.60;99.90
57833;DHT22;43667;53.036;6.740;2023-05-10T11:36:23;15.70;99.90
57833;DHT22;43667;53.036;6.740;2023-05-10T11:38:48;15.70;99.90
57833;DHT22;43667;53.036;6.740;2023-05-10T11:41:16;15.70;99.90
57833;DHT22;43667;53.036;6.740;2023-05-10T11:43:42;15.80;99.90
57833;DHT22;43667;53.036;6.740;2023-05-10T11:46:10;15.80;99.90
57833;DHT22;43667;53.036;6.740;2023-05-10T11:48:40;15.80;99.90
57833;DHT22;43667;53.036;6.740;2023-05-10T11:51:10;15.70;99.90
57833;DHT22;43667;53.036;6.740;2023-05-10T11:53:36;15.70;99.90
57833;DHT22;43667;53.036;6.740;2023-05-10T11:56:06;15.60;99.90
57833;DHT22;43667;53.036;6.740;2023-05-10T11:58:32;15.60;99.90
57833;DHT22;43667;53.036;6.740;2023-05-10T12:01:02;15.60;99.90
57833;DHT22;43667;53.036;6.740;2023-05-10T12:03:29;15.70;99.90
57833;DHT22;43667;53.036;6.740;2023-05-10T12:05:56;15.70;99.90
57833;DHT22;43667;53.036;6.740;2023-05-10T12:08:24;15.70;99.90
57833;DHT22;43667;53.036;6.740;2023-05-10T12:10:50;15.70;99.90
57833;DHT22;43667;53.036;6.740;2023-05-10T12:13:17;15.80;99.90
57833;DHT22;43667;53.036;6.740;2023-05-10T12:15:43;15.90;99.90
57833;DHT22;43667;53.036;6.740;2023-05-10T12:18:10;16.00;99.90
57833;DHT22;43667;53.036;6.740;2023-05-10T12:20:37;16.10;99.90
57833;DHT22;43667;53.036;6.740;2023-05-10T12:23:03;16.20;99.90
57833;DHT22;43667;53.036;6.740;2023-05-10T12:25:38;16.30;99.90
57833;DHT22;43667;53.036;6.740;2023-05-10T12:28:06;16.40;99.90
57833;DHT22;43667;53.036;6.740;2023-05-10T12:30:34;16.40;99.90
57833;DHT22;43667;53.036;6.740;2023-05-10T12:33:08;16.40;99.90
57833;DHT22;43667;53.036;6.740;2023-05-10T12:35:44;16.40;99.90
57833;DHT22;43667;53.036;6.740;2023-05-10T12:38:35;16.40;99.90
57833;DHT22;43667;53.036;6.740;2023-05-10T12:41:05;16.30;99.90
57833;DHT22;43667;53.036;6.740;2023-05-10T12:43:31;16.20;99.90
57833;DHT22;43667;53.036;6.740;2023-05-10T12:45:57;16.20;99.90
57833;DHT22;43667;53.036;6.740;2023-05-10T12:48:23;16.10;99.90
57833;DHT22;43667;53.036;6.740;2023-05-10T12:50:49;16.10;99.90
57833;DHT22;43667;53.036;6.740;2023-05-10T12:53:15;16.10;99.90
57833;DHT22;43667;53.036;6.740;2023-05-10T12:55:44;16.10;99.90
57833;DHT22;43667;53.036;6.740;2023-05-10T12:58:09;16.10;99.90
57833;DHT22;43667;53.036;6.740;2023-05-10T13:00:36;16.10;99.90
57833;DHT22;43667;53.036;6.740;2023-05-10T13:03:04;16.10;99.90
57833;DHT22;43667;53.036;6.740;2023-05-10T13:05:32;16.10;99.90
57833;DHT22;43667;53.036;6.740;2023-05-10T13:07:58;16.10;99.90
57833;DHT22;43667;53.036;6.740;2023-05-10T13:10:23;16.10;99.90
57833;DHT22;43667;53.036;6.740;2023-05-10T13:12:50;16.10;99.90
57833;DHT22;43667;53.036;6.740;2023-05-10T13:15:16;16.10;99.90
57833;DHT22;43667;53.036;6.740;2023-05-10T13:17:42;16.10;99.90
57833;DHT22;43667;53.036;6.740;2023-05-10T13:20:08;16.10;99.90
57833;DHT22;43667;53.036;6.740;2023-05-10T13:22:35;16.20;99.90
57833;DHT22;43667;53.036;6.740;2023-05-10T13:25:03;16.20;99.90
57833;DHT22;43667;53.036;6.740;2023-05-10T13:27:29;16.20;99.90
57833;DHT22;43667;53.036;6.740;2023-05-10T13:29:55;16.30;99.90
57833;DHT22;43667;53.036;6.740;2023-05-10T13:32:21;16.30;99.90
57833;DHT22;43667;53.036;6.740;2023-05-10T13:34:46;16.60;99.90
57833;DHT22;43667;53.036;6.740;2023-05-10T13:37:12;17.50;99.90
57833;DHT22;43667;53.036;6.740;2023-05-10T13:39:38;18.00;99.90
57833;DHT22;43667;53.036;6.740;2023-05-10T13:42:04;16.90;99.90
57833;DHT22;43667;53.036;6.740;2023-05-10T13:44:29;17.20;99.90
57833;DHT22;43667;53.036;6.740;2023-05-10T13:59:09;16.90;99.90
57833;DHT22;43667;53.036;6.740;2023-05-10T14:01:35;16.80;99.90
57833;DHT22;43667;53.036;6.740;2023-05-10T14:04:00;16.80;99.90
57833;DHT22;43667;53.036;6.740;2023-05-10T14:06:26;16.70;99.90
57833;DHT22;43667;53.036;6.740;2023-05-10T14:08:52;16.90;99.90
57833;DHT22;43667;53.036;6.740;2023-05-10T14:11:19;16.80;99.90
57833;DHT22;43667;53.036;6.740;2023-05-10T14:13:45;17.40;99.90
57833;DHT22;43667;53.036;6.740;2023-05-10T14:16:10;17.10;99.90
57833;DHT22;43667;53.036;6.740;2023-05-10T14:18:37;17.00;99.90
57833;DHT22;43667;53.036;6.740;2023-05-10T14:21:03;16.90;99.90
57833;DHT22;43667;53.036;6.740;2023-05-10T14:25:55;17.30;99.90
57833;DHT22;43667;53.036;6.740;2023-05-10T14:28:21;16.90;99.90
57833;DHT22;43667;53.036;6.740;2023-05-10T14:30:48;17.30;99.90
57833;DHT22;43667;53.036;6.740;2023-05-10T14:33:14;17.00;99.90
57833;DHT22;43667;53.036;6.740;2023-05-10T14:35:39;17.00;99.90
57833;DHT22;43667;53.036;6.740;2023-05-10T14:40:32;16.60;99.90
57833;DHT22;43667;53.036;6.740;2023-05-10T14:42:57;17.10;99.90
57833;DHT22;43667;53.036;6.740;2023-05-10T14:45:23;17.00;99.90
57833;DHT22;43667;53.036;6.740;2023-05-10T14:47:49;16.90;99.90
57833;DHT22;43667;53.036;6.740;2023-05-10T14:50:15;16.90;99.90
57833;DHT22;43667;53.036;6.740;2023-05-10T14:52:42;16.90;99.90
57833;DHT22;43667;53.036;6.740;2023-05-10T14:55:08;16.80;99.90
57833;DHT22;43667;53.036;6.740;2023-05-10T14:57:34;16.70;99.90
57833;DHT22;43667;53.036;6.740;2023-05-10T14:59:59;16.70;99.90
57833;DHT22;43667;53.036;6.740;2023-05-10T15:02:25;16.70;99.90
57833;DHT22;43667;53.036;6.740;2023-05-10T15:04:50;16.60;99.90
57833;DHT22;43667;53.036;6.740;2023-05-10T15:07:16;16.70;99.90
57833;DHT22;43667;53.036;6.740;2023-05-10T15:09:44;16.70;99.90
57833;DHT22;43667;53.036;6.740;2023-05-10T15:12:10;17.00;99.90
57833;DHT22;43667;53.036;6.740;2023-05-10T15:14:35;16.80;99.90
57833;DHT22;43667;53.036;6.740;2023-05-10T15:17:02;17.20;99.90
57833;DHT22;43667;53.036;6.740;2023-05-10T15:19:27;16.70;99.90
57833;DHT22;43667;53.036;6.740;2023-05-10T15:21:54;17.00;99.90
57833;DHT22;43667;53.036;6.740;2023-05-10T15:36:44;16.90;99.90
57833;DHT22;43667;53.036;6.740;2023-05-10T15:39:10;16.90;99.90
57833;DHT22;43667;53.036;6.740;2023-05-10T15:41:36;17.00;99.90
57833;DHT22;43667;53.036;6.740;2023-05-10T15:44:02;17.30;99.90
57833;DHT22;43667;53.036;6.740;2023-05-10T15:46:28;17.10;99.90
57833;DHT22;43667;53.036;6.740;2023-05-10T15:48:54;17.10;99.90
57833;DHT22;43667;53.036;6.740;2023-05-10T15:51:19;16.90;99.90
57833;DHT22;43667;53.036;6.740;2023-05-10T15:53:45;16.90;99.90
57833;DHT22;43667;53.036;6.740;2023-05-10T15:56:11;17.20;99.90
57833;DHT22;43667;53.036;6.740;2023-05-10T15:58:40;17.20;99.90
57833;DHT22;43667;53.036;6.740;2023-05-10T16:01:06;17.30;99.90
57833;DHT22;43667;53.036;6.740;2023-05-10T16:03:33;17.00;99.90
57833;DHT22;43667;53.036;6.740;2023-05-10T16:05:59;17.20;99.90
57833;DHT22;43667;53.036;6.740;2023-05-10T16:08:25;17.20;99.90
57833;DHT22;43667;53.036;6.740;2023-05-10T16:10:51;17.40;99.90
57833;DHT22;43667;53.036;6.740;2023-05-10T16:13:19;16.90;99.90
57833;DHT22;43667;53.036;6.740;2023-05-10T16:15:45;17.20;99.90
57833;DHT22;43667;53.036;6.740;2023-05-10T16:18:10;17.00;99.90
57833;DHT22;43667;53.036;6.740;2023-05-10T16:23:04;17.20;99.90
57833;DHT22;43667;53.036;6.740;2023-05-10T16:25:31;16.90;99.90